createdAt,value
2019-05-16T00:00:25.666Z,4.57
2019-05-16T00:02:58.647Z,5.40
2019-05-16T00:05:28.791Z,4.77
2019-05-16T00:08:00.257Z,4.53
2019-05-16T00:10:31.506Z,4.87
2019-05-16T00:13:01.947Z,4.70
2019-05-16T00:15:32.288Z,4.90
2019-05-16T00:18:02.504Z,4.50
2019-05-16T00:20:33.104Z,4.10
2019-05-16T00:23:03.471Z,4.60
2019-05-16T00:25:34.063Z,4.40
2019-05-16T00:28:04.332Z,4.97
2019-05-16T00:30:34.527Z,4.50
2019-05-16T00:33:04.739Z,4.20
2019-05-16T00:35:34.907Z,4.20
2019-05-16T00:38:05.115Z,4.17
2019-05-16T00:40:38.062Z,4.03
2019-05-16T00:43:08.189Z,4.20
2019-05-16T00:45:39.156Z,4.20
2019-05-16T00:48:09.779Z,4.77
2019-05-16T00:50:40.420Z,4.50
2019-05-16T00:53:10.629Z,4.70
2019-05-16T00:55:41.868Z,4.73
2019-05-16T00:58:13.561Z,4.97
2019-05-16T01:00:50.001Z,4.70
2019-05-16T01:03:21.147Z,5.37
2019-05-16T01:05:51.556Z,5.10
2019-05-16T01:08:21.762Z,4.57
2019-05-16T01:10:51.984Z,4.40
2019-05-16T01:13:22.685Z,4.30
2019-05-16T01:15:52.870Z,4.80
2019-05-16T01:18:23.087Z,4.80
2019-05-16T01:20:53.670Z,5.90
2019-05-16T01:23:23.853Z,5.33
2019-05-16T01:25:54.318Z,4.80
2019-05-16T01:28:24.864Z,4.80
2019-05-16T01:30:57.836Z,5.60
2019-05-16T01:33:28.218Z,5.40
2019-05-16T01:35:58.795Z,5.20
2019-05-16T01:38:28.969Z,5.57
2019-05-16T01:41:01.843Z,5.37
2019-05-16T01:43:32.412Z,5.90
2019-05-16T01:46:03.215Z,5.50
2019-05-16T01:48:34.830Z,5.40
2019-05-16T01:51:07.621Z,5.17
2019-05-16T01:53:39.508Z,5.50
2019-05-16T01:56:09.829Z,5.80
2019-05-16T01:58:40.904Z,6.03
2019-05-16T02:01:15.062Z,5.80
2019-05-16T02:03:43.625Z,5.23
2019-05-16T02:06:13.810Z,5.47
2019-05-16T02:08:44.020Z,5.60
2019-05-16T02:11:14.233Z,5.70
2019-05-16T02:13:44.323Z,5.57
2019-05-16T02:16:14.787Z,6.37
2019-05-16T02:18:45.347Z,6.73
2019-05-16T02:21:15.575Z,6.47
2019-05-16T02:23:46.137Z,6.40
2019-05-16T02:26:19.125Z,5.97
2019-05-16T02:28:50.755Z,6.83
2019-05-16T02:31:22.825Z,6.63
2019-05-16T02:33:52.485Z,6.30
2019-05-16T02:36:22.916Z,6.37
2019-05-16T02:38:55.568Z,6.10
2019-05-16T02:41:24.905Z,6.03
2019-05-16T02:43:55.207Z,6.40
2019-05-16T02:46:25.453Z,6.40
2019-05-16T02:48:56.059Z,6.00
2019-05-16T02:51:26.655Z,6.47
2019-05-16T02:53:56.882Z,6.20
2019-05-16T02:56:27.093Z,6.20
2019-05-16T02:58:57.379Z,6.10
2019-05-16T03:01:27.553Z,6.17
2019-05-16T03:03:57.831Z,6.57
2019-05-16T03:06:31.803Z,5.87
2019-05-16T03:09:01.830Z,5.90
2019-05-16T03:11:33.208Z,6.40
2019-05-16T03:14:05.319Z,5.60
2019-05-16T03:16:41.556Z,6.10
2019-05-16T03:19:13.740Z,6.10
2019-05-16T03:21:44.858Z,5.70
2019-05-16T03:24:15.033Z,5.90
2019-05-16T03:26:45.255Z,6.37
2019-05-16T03:29:15.430Z,5.93
2019-05-16T03:31:45.775Z,5.30
2019-05-16T03:34:17.287Z,6.27
2019-05-16T03:36:53.657Z,6.13
2019-05-16T03:39:21.206Z,5.90
2019-05-16T03:41:51.572Z,5.00
2019-05-16T03:44:21.683Z,5.20
2019-05-16T03:46:54.192Z,5.63
2019-05-16T03:49:24.688Z,6.43
2019-05-16T03:51:55.294Z,6.50
2019-05-16T03:54:25.522Z,6.20
2019-05-16T03:56:56.170Z,5.90
2019-05-16T03:59:26.439Z,6.50
2019-05-16T04:01:56.899Z,6.57
2019-05-16T04:04:27.401Z,5.80
2019-05-16T04:07:01.109Z,6.13
2019-05-16T04:09:31.567Z,6.27
2019-05-16T04:12:02.143Z,6.30
2019-05-16T04:14:32.289Z,6.83
2019-05-16T04:17:02.458Z,6.03
2019-05-16T04:19:32.656Z,6.37
2019-05-16T04:22:02.861Z,6.10
2019-05-16T04:24:33.058Z,6.70
2019-05-16T04:27:03.232Z,6.30
2019-05-16T04:29:33.434Z,5.67
2019-05-16T04:32:03.673Z,5.97
2019-05-16T04:34:33.846Z,6.17
2019-05-16T04:37:04.342Z,6.20
2019-05-16T04:39:34.541Z,6.40
2019-05-16T04:42:04.712Z,5.87
2019-05-16T04:44:34.928Z,7.13
2019-05-16T04:47:05.147Z,6.63
2019-05-16T04:49:35.327Z,6.90
2019-05-16T04:52:05.554Z,6.10
2019-05-16T04:54:36.368Z,6.13
2019-05-16T04:57:06.583Z,6.47
2019-05-16T04:59:36.782Z,6.50
2019-05-16T05:02:06.985Z,6.67
2019-05-16T05:04:37.500Z,6.57
2019-05-16T05:07:10.874Z,6.93
2019-05-16T05:09:40.873Z,6.97
2019-05-16T05:12:11.673Z,7.20
2019-05-16T05:14:41.924Z,7.30
2019-05-16T05:17:12.129Z,7.03
2019-05-16T05:19:42.317Z,6.33
2019-05-16T05:22:12.488Z,5.83
2019-05-16T05:24:42.726Z,6.90
2019-05-16T05:27:13.272Z,7.07
2019-05-16T05:29:43.611Z,7.07
2019-05-16T05:32:14.563Z,6.50
2019-05-16T05:34:45.248Z,6.63
2019-05-16T05:37:15.794Z,6.97
2019-05-16T05:39:45.957Z,6.70
2019-05-16T05:42:16.156Z,7.27
2019-05-16T05:44:46.324Z,7.13
2019-05-16T05:47:19.837Z,7.03
2019-05-16T05:49:49.854Z,7.40
2019-05-16T05:52:20.773Z,7.30
2019-05-16T05:54:51.142Z,7.30
2019-05-16T05:57:21.671Z,7.17
2019-05-16T05:59:51.904Z,7.50
2019-05-16T06:02:22.492Z,7.60
2019-05-16T06:04:53.101Z,8.13
2019-05-16T06:07:23.290Z,7.80
2019-05-16T06:09:56.573Z,7.67
2019-05-16T06:12:26.304Z,7.77
2019-05-16T06:14:57.503Z,7.43
2019-05-16T06:17:27.712Z,8.00
2019-05-16T06:20:00.134Z,8.00
2019-05-16T06:22:30.105Z,7.73
2019-05-16T06:25:01.095Z,7.57
2019-05-16T06:27:32.018Z,7.40
2019-05-16T06:30:02.600Z,7.80
2019-05-16T06:32:33.599Z,7.93
2019-05-16T06:35:03.774Z,8.03
2019-05-16T06:37:34.053Z,8.07
2019-05-16T06:40:05.055Z,7.97
2019-05-16T06:42:35.267Z,7.60
2019-05-16T06:45:05.853Z,7.30
2019-05-16T06:47:36.037Z,8.93
2019-05-16T06:50:06.948Z,7.70
2019-05-16T06:52:37.466Z,8.10
2019-05-16T06:55:09.873Z,7.63
2019-05-16T06:57:40.922Z,7.73
2019-05-16T07:00:13.152Z,7.63
2019-05-16T07:02:43.836Z,7.87
2019-05-16T07:05:14.859Z,7.30
2019-05-16T07:07:45.060Z,7.50
2019-05-16T07:10:15.525Z,6.57
2019-05-16T07:12:45.760Z,7.37
2019-05-16T07:15:17.330Z,7.13
2019-05-16T07:17:50.449Z,6.53
2019-05-16T07:20:21.081Z,6.80
2019-05-16T07:22:51.522Z,6.70
2019-05-16T07:25:22.105Z,6.60
2019-05-16T07:27:52.599Z,7.27
2019-05-16T07:30:22.802Z,7.17
2019-05-16T07:32:53.044Z,7.33
2019-05-16T07:35:23.338Z,7.00
2019-05-16T07:37:54.026Z,6.67
2019-05-16T07:40:26.911Z,6.20
2019-05-16T07:42:56.441Z,7.20
2019-05-16T07:45:26.924Z,7.17
2019-05-16T07:47:57.179Z,7.97
2019-05-16T07:50:29.876Z,7.63
2019-05-16T07:52:59.999Z,7.13
2019-05-16T07:55:30.933Z,7.20
2019-05-16T07:58:01.159Z,7.47
2019-05-16T08:00:48.445Z,6.93
2019-05-16T08:03:04.234Z,6.90
2019-05-16T08:05:41.294Z,6.90
2019-05-16T08:08:12.087Z,7.20
2019-05-16T08:10:46.584Z,6.30
2019-05-16T08:13:17.532Z,6.20
2019-05-16T08:15:46.255Z,6.50
2019-05-16T08:18:16.704Z,6.23
2019-05-16T08:20:47.003Z,5.90
2019-05-16T08:23:17.345Z,6.00
2019-05-16T08:25:50.461Z,5.27
2019-05-16T08:28:21.603Z,5.23
2019-05-16T08:33:20.809Z,5.93
2019-05-16T08:33:24.462Z,5.30
2019-05-16T08:35:54.923Z,5.57
2019-05-16T08:38:25.147Z,5.57
2019-05-16T08:41:08.130Z,5.60
2019-05-16T08:46:12.311Z,4.93
2019-05-16T08:48:42.785Z,5.00
2019-05-16T08:51:13.038Z,4.77
2019-05-16T08:53:43.757Z,5.20
2019-05-16T08:56:14.016Z,4.57
2019-05-16T08:58:44.579Z,4.40
2019-05-16T09:01:16.341Z,4.50
2019-05-16T09:03:46.839Z,4.20
2019-05-16T09:06:17.166Z,3.80
2019-05-16T09:08:47.387Z,3.53
2019-05-16T09:11:31.370Z,4.17
2019-05-16T09:13:49.729Z,4.10
2019-05-16T09:16:19.987Z,3.60
2019-05-16T09:18:51.549Z,3.40
2019-05-16T09:21:22.338Z,4.10
2019-05-16T09:23:52.589Z,3.67
2019-05-16T09:26:23.203Z,3.23
2019-05-16T09:28:56.736Z,3.53
2019-05-16T09:31:27.492Z,3.83
2019-05-16T09:33:57.877Z,3.20
2019-05-16T09:36:28.342Z,3.90
2019-05-16T09:38:58.536Z,4.00
2019-05-16T09:41:46.188Z,3.83
2019-05-16T09:44:01.236Z,3.90
2019-05-16T09:46:31.507Z,3.90
2019-05-16T09:49:19.482Z,3.90
2019-05-16T09:51:33.519Z,3.30
2019-05-16T09:54:03.823Z,3.70
2019-05-16T09:56:34.119Z,3.77
2019-05-16T09:59:06.752Z,3.57
2019-05-16T10:01:37.025Z,2.87
2019-05-16T10:04:07.786Z,3.60
2019-05-16T10:06:38.482Z,2.90
2019-05-16T10:09:08.840Z,3.30
2019-05-16T10:11:41.629Z,3.20
2019-05-16T10:14:10.990Z,3.07
2019-05-16T10:16:41.242Z,3.10
2019-05-16T10:19:11.459Z,3.07
2019-05-16T10:21:42.005Z,3.07
2019-05-16T10:24:12.314Z,2.90
2019-05-16T10:26:47.257Z,3.40
2019-05-16T10:29:18.733Z,3.00
2019-05-16T10:31:53.213Z,2.73
2019-05-16T10:34:22.050Z,3.07
2019-05-16T10:36:52.683Z,2.90
2019-05-16T10:39:26.814Z,3.10
2019-05-16T10:41:57.556Z,2.70
2019-05-16T10:44:28.453Z,2.93
2019-05-16T10:46:59.247Z,2.93
2019-05-16T10:49:36.953Z,2.70
2019-05-16T10:52:02.985Z,2.50
2019-05-16T10:54:33.375Z,2.40
2019-05-16T10:57:04.002Z,2.70
2019-05-16T11:02:07.563Z,2.60
2019-05-16T11:04:53.802Z,2.93
2019-05-16T11:07:09.826Z,2.70
2019-05-16T11:09:53.521Z,2.40
2019-05-16T11:12:12.309Z,2.70
2019-05-16T11:14:42.610Z,2.33
2019-05-16T11:17:14.032Z,2.23
2019-05-16T11:19:46.550Z,2.70
2019-05-16T11:22:16.213Z,2.53
2019-05-16T11:24:47.139Z,2.47
2019-05-16T11:27:20.836Z,2.67
2019-05-16T11:29:50.996Z,3.50
2019-05-16T11:32:21.287Z,3.57
2019-05-16T11:34:51.579Z,3.50
2019-05-16T11:37:21.828Z,3.60
2019-05-16T11:39:52.102Z,3.50
2019-05-16T11:42:22.352Z,3.23
2019-05-16T11:44:52.968Z,3.20
2019-05-16T11:47:23.172Z,2.80
2019-05-16T11:49:54.162Z,2.70
2019-05-16T11:52:24.396Z,2.80
2019-05-16T11:54:57.067Z,2.80
2019-05-16T11:57:26.552Z,2.80
2019-05-16T11:59:56.904Z,3.60
2019-05-16T12:02:28.082Z,3.43
2019-05-16T12:04:58.953Z,3.20
2019-05-16T12:07:33.415Z,3.37
2019-05-16T12:10:01.613Z,3.30
2019-05-16T12:12:32.219Z,3.30
2019-05-16T12:15:02.887Z,3.20
2019-05-16T12:17:33.154Z,3.03
2019-05-16T12:20:03.667Z,3.33
2019-05-16T12:22:33.936Z,3.20
2019-05-16T12:25:07.894Z,3.00
2019-05-16T12:27:42.297Z,2.87
2019-05-16T12:30:13.734Z,3.00
2019-05-16T12:32:44.325Z,3.07
2019-05-16T12:35:17.366Z,3.30
2019-05-16T12:37:47.903Z,3.17
2019-05-16T12:40:18.505Z,3.30
2019-05-16T12:42:48.907Z,2.83
2019-05-16T12:45:19.295Z,3.33
2019-05-16T12:47:49.592Z,3.30
2019-05-16T12:50:20.357Z,3.80
2019-05-16T12:52:50.535Z,3.50
2019-05-16T12:55:20.899Z,3.50
2019-05-16T12:57:58.701Z,4.47
2019-05-16T13:00:23.198Z,4.07
2019-05-16T13:02:53.930Z,3.53
2019-05-16T13:05:26.719Z,3.90
2019-05-16T13:07:56.143Z,3.50
2019-05-16T13:10:27.167Z,3.40
2019-05-16T13:12:58.250Z,3.80
2019-05-16T13:15:28.791Z,3.40
2019-05-16T13:17:59.337Z,3.40
2019-05-16T13:20:29.541Z,3.63
2019-05-16T13:22:59.814Z,3.80
2019-05-16T13:25:30.094Z,3.70
2019-05-16T13:28:01.509Z,3.47
2019-05-16T13:30:32.592Z,3.60
2019-05-16T13:33:02.909Z,3.63
2019-05-16T13:35:36.731Z,3.53
2019-05-16T13:38:07.972Z,3.17
2019-05-16T13:40:38.753Z,3.40
2019-05-16T13:43:10.431Z,3.43
2019-05-16T13:45:41.116Z,3.27
2019-05-16T13:48:11.948Z,3.40
2019-05-16T13:50:42.206Z,3.50
2019-05-16T13:53:12.874Z,3.23
2019-05-16T13:55:45.527Z,3.67
2019-05-16T13:58:17.866Z,3.67
2019-05-16T14:00:48.296Z,3.90
2019-05-16T14:03:18.542Z,2.83
2019-05-16T14:06:07.220Z,3.30
2019-05-16T14:08:38.014Z,3.10
2019-05-16T14:11:09.927Z,3.17
2019-05-16T14:13:40.507Z,3.20
2019-05-16T14:16:10.757Z,3.10
2019-05-16T14:18:41.011Z,3.37
2019-05-16T14:21:11.355Z,3.47
2019-05-16T14:23:41.921Z,3.70
2019-05-16T14:26:12.207Z,4.30
2019-05-16T14:28:44.709Z,3.53
2019-05-16T14:31:17.445Z,3.70
2019-05-16T14:33:47.847Z,3.43
2019-05-16T14:36:18.049Z,4.07
2019-05-16T14:38:48.688Z,3.97
2019-05-16T14:41:19.047Z,4.00
2019-05-16T14:43:49.479Z,4.20
2019-05-16T14:46:19.991Z,3.93
2019-05-16T14:48:50.567Z,3.80
2019-05-16T14:51:21.186Z,3.80
2019-05-16T14:53:51.608Z,3.80
2019-05-16T14:56:22.212Z,4.20
2019-05-16T14:58:52.487Z,3.70
2019-05-16T15:01:23.143Z,4.00
2019-05-16T15:03:53.693Z,3.93
2019-05-16T15:06:24.495Z,3.97
2019-05-16T15:08:56.718Z,4.00
2019-05-16T15:11:28.260Z,4.13
2019-05-16T15:13:58.631Z,4.17
2019-05-16T15:16:29.403Z,4.00
2019-05-16T15:19:00.013Z,3.80
2019-05-16T15:21:31.312Z,4.17
2019-05-16T15:24:01.556Z,4.57
2019-05-16T15:26:32.210Z,3.90
2019-05-16T15:29:02.498Z,4.30
2019-05-16T15:31:32.781Z,3.80
2019-05-16T15:34:03.210Z,4.00
2019-05-16T15:36:33.492Z,3.90
2019-05-16T15:39:07.843Z,3.90
2019-05-16T15:41:37.888Z,4.00
2019-05-16T15:44:08.492Z,3.83
2019-05-16T15:46:39.027Z,4.43
2019-05-16T15:49:10.452Z,4.13
2019-05-16T15:51:41.115Z,3.97
2019-05-16T15:54:17.888Z,3.85
2019-05-16T15:56:49.710Z,4.30
2019-05-16T15:59:20.231Z,4.37
2019-05-16T16:01:50.454Z,4.37
2019-05-16T16:04:20.943Z,3.93
2019-05-16T16:06:51.211Z,4.90
2019-05-16T16:09:21.840Z,4.53
2019-05-16T16:11:52.023Z,4.23
2019-05-16T16:14:22.602Z,4.80
2019-05-16T16:16:53.157Z,5.20
2019-05-16T16:19:23.852Z,4.43
2019-05-16T16:21:54.252Z,5.10
2019-05-16T16:24:27.692Z,4.50
2019-05-16T16:26:57.039Z,4.20
2019-05-16T16:29:27.452Z,3.30
2019-05-16T16:31:57.742Z,3.10
2019-05-16T16:34:28.024Z,3.90
2019-05-16T16:36:58.237Z,3.70
2019-05-16T16:39:28.471Z,3.13
2019-05-16T16:41:59.131Z,3.20
2019-05-16T16:44:29.714Z,3.57
2019-05-16T16:47:00.082Z,3.43
2019-05-16T16:49:30.831Z,3.37
2019-05-16T16:52:01.344Z,3.47
2019-05-16T16:54:31.609Z,4.37
2019-05-16T16:57:01.863Z,3.57
2019-05-16T16:59:32.342Z,3.50
2019-05-16T17:02:02.619Z,3.77
2019-05-16T17:04:32.977Z,3.43
2019-05-16T17:07:03.229Z,3.57
2019-05-16T17:09:33.425Z,3.80
2019-05-16T17:12:06.518Z,3.50
2019-05-16T17:14:37.043Z,2.90
2019-05-16T17:17:07.808Z,4.00
2019-05-16T17:19:38.014Z,3.57
2019-05-16T17:22:17.077Z,3.67
2019-05-16T17:24:40.678Z,3.80
2019-05-16T17:27:10.920Z,3.50
2019-05-16T17:29:41.317Z,3.73
2019-05-16T17:32:11.509Z,3.50
2019-05-16T17:34:42.136Z,3.67
2019-05-16T17:37:12.702Z,3.43
2019-05-16T17:39:42.934Z,4.10
2019-05-16T17:42:13.222Z,4.13
2019-05-16T17:44:43.436Z,4.37
2019-05-16T17:47:13.972Z,3.77
2019-05-16T17:49:46.121Z,4.40
2019-05-16T17:52:16.644Z,4.07
2019-05-16T17:54:47.302Z,3.87
2019-05-16T17:57:17.536Z,3.90
2019-05-16T17:59:48.818Z,4.10
2019-05-16T18:02:19.073Z,4.13
2019-05-16T18:04:49.287Z,4.00
2019-05-16T18:07:19.918Z,4.17
2019-05-16T18:09:51.427Z,3.80
2019-05-16T18:12:21.677Z,3.80
2019-05-16T18:14:51.931Z,3.90
2019-05-16T18:17:22.544Z,3.53
2019-05-16T18:19:52.766Z,4.43
2019-05-16T18:22:23.030Z,3.40
2019-05-16T18:24:53.288Z,4.03
2019-05-16T18:27:23.967Z,4.20
2019-05-16T18:29:54.876Z,3.70
2019-05-16T18:32:26.563Z,3.40
2019-05-16T18:34:56.870Z,3.43
2019-05-16T18:37:27.112Z,3.80
2019-05-16T18:39:57.348Z,3.53
2019-05-16T18:42:27.681Z,3.60
2019-05-16T18:44:58.367Z,3.60
2019-05-16T18:47:28.652Z,3.60
2019-05-16T18:49:58.885Z,4.07
2019-05-16T18:52:29.720Z,3.73
2019-05-16T18:54:59.977Z,3.47
2019-05-16T18:57:30.165Z,3.30
2019-05-16T19:00:02.565Z,4.67
2019-05-16T19:02:33.197Z,4.20
2019-05-16T19:05:03.761Z,4.10
2019-05-16T19:07:34.064Z,3.90
2019-05-16T19:10:06.800Z,3.70
2019-05-16T19:12:37.426Z,3.57
2019-05-16T19:15:08.550Z,3.70
2019-05-16T19:17:38.864Z,3.60
2019-05-16T19:20:09.348Z,4.20
2019-05-16T19:22:39.847Z,4.43
2019-05-16T19:25:10.357Z,3.77
2019-05-16T19:27:40.635Z,3.70
2019-05-16T19:30:11.944Z,4.20
2019-05-16T19:32:42.463Z,4.10
2019-05-16T19:35:12.783Z,3.77
2019-05-16T19:37:43.014Z,4.00
2019-05-16T19:40:14.252Z,3.50
2019-05-16T19:42:46.654Z,4.63
2019-05-16T19:45:17.190Z,4.23
2019-05-16T19:47:47.420Z,4.20
2019-05-16T19:50:18.256Z,3.90
2019-05-16T19:52:48.475Z,4.10
2019-05-16T19:55:18.663Z,4.70
2019-05-16T19:57:49.091Z,4.37
2019-05-16T20:00:19.532Z,4.10
2019-05-16T20:02:49.806Z,4.13
2019-05-16T20:05:20.227Z,4.30
2019-05-16T20:07:50.446Z,4.30
2019-05-16T20:10:20.987Z,4.53
2019-05-16T20:12:51.190Z,5.10
2019-05-16T20:15:21.600Z,4.80
2019-05-16T20:17:55.116Z,4.27
2019-05-16T20:20:27.505Z,4.30
2019-05-16T20:22:58.381Z,3.83
2019-05-16T20:25:29.241Z,4.67
2019-05-16T20:27:59.509Z,4.20
2019-05-16T20:30:30.164Z,4.70
2019-05-16T20:33:00.411Z,4.20
2019-05-16T20:35:30.756Z,4.77
2019-05-16T20:38:01.327Z,4.57
2019-05-16T20:40:32.157Z,5.37
2019-05-16T20:43:02.436Z,5.17
2019-05-16T20:45:33.165Z,4.90
2019-05-16T20:48:10.999Z,5.03
2019-05-16T20:50:35.395Z,4.60
2019-05-16T20:53:07.254Z,4.50
2019-05-16T20:55:38.306Z,5.50
2019-05-16T20:58:08.592Z,5.47
2019-05-16T21:00:38.846Z,5.13
2019-05-16T21:03:16.349Z,5.37
2019-05-16T21:05:49.718Z,5.50
2019-05-16T21:08:21.700Z,5.87
2019-05-16T21:10:53.181Z,5.97
2019-05-16T21:13:23.632Z,5.67
2019-05-16T21:15:59.850Z,6.20
2019-05-16T21:18:31.006Z,6.60
2019-05-16T21:21:02.048Z,5.43
2019-05-16T21:23:36.466Z,5.60
2019-05-16T21:26:07.232Z,5.87
2019-05-16T21:28:39.218Z,6.60
2019-05-16T21:31:10.452Z,5.33
2019-05-16T21:33:41.445Z,6.30
2019-05-16T21:36:12.598Z,6.00
2019-05-16T21:38:43.345Z,6.00
2019-05-16T21:41:16.690Z,6.97
2019-05-16T21:43:47.227Z,6.67
2019-05-16T21:46:20.179Z,6.45
2019-05-16T21:48:49.747Z,6.77
2019-05-16T21:51:21.511Z,5.73
2019-05-16T21:53:52.589Z,6.73
2019-05-16T21:56:26.454Z,7.30
2019-05-16T21:58:57.642Z,6.10
2019-05-16T22:01:28.897Z,6.40
2019-05-16T22:04:00.511Z,7.40
2019-05-16T22:06:31.851Z,6.80
2019-05-16T22:09:04.107Z,6.60
2019-05-16T22:11:37.075Z,6.33
2019-05-16T22:14:10.095Z,6.20
2019-05-16T22:16:43.245Z,6.40
2019-05-16T22:19:17.167Z,6.83
2019-05-16T22:21:48.858Z,6.20
2019-05-16T22:24:23.246Z,6.80
2019-05-16T22:26:54.512Z,5.90
2019-05-16T22:29:26.404Z,5.93
2019-05-16T22:31:58.215Z,6.33
2019-05-16T22:34:29.819Z,5.87
2019-05-16T22:37:00.989Z,5.73
2019-05-16T22:39:37.535Z,6.57
2019-05-16T22:42:06.462Z,6.07
2019-05-16T22:44:37.560Z,6.87
2019-05-16T22:47:08.584Z,6.30
2019-05-16T22:49:41.678Z,6.57
2019-05-16T22:52:13.475Z,6.10
2019-05-16T22:54:47.608Z,5.97
2019-05-16T22:57:22.024Z,5.43
2019-05-16T22:59:57.136Z,6.40
2019-05-16T23:02:28.439Z,6.00
2019-05-16T23:05:00.007Z,6.30
2019-05-16T23:07:30.312Z,5.93
2019-05-16T23:10:01.756Z,5.47
2019-05-16T23:12:32.635Z,6.30
2019-05-16T23:15:06.640Z,5.67
2019-05-16T23:17:38.171Z,5.70
2019-05-16T23:20:09.266Z,5.43
2019-05-16T23:22:41.256Z,6.03
2019-05-16T23:25:17.157Z,5.70
2019-05-16T23:27:47.492Z,5.60
2019-05-16T23:30:19.827Z,6.23
2019-05-16T23:32:51.564Z,6.40
2019-05-16T23:35:26.703Z,5.67
2019-05-16T23:37:56.926Z,6.17
2019-05-16T23:40:29.939Z,6.03
2019-05-16T23:43:00.351Z,6.63
2019-05-16T23:45:32.208Z,6.50
2019-05-16T23:48:09.481Z,6.20
2019-05-16T23:50:38.920Z,5.73
2019-05-16T23:53:12.223Z,7.10
2019-05-16T23:55:44.520Z,7.30
2019-05-16T23:58:16.999Z,7.17
